Time;durP1;ratioP1;P1;durP2;ratioP2;P2;SDS_P1;SDS_P2;PMS_P1;PMS_P2;Temp;Humidity;BMP_temperature;BMP_pressure;BME280_temperature;BME280_humidity;BME280_pressure;Samples;Min_cycle;Max_cycle;Signal;HPM_P1;HPM_P2
2021/12/03 00:01:11;;;;;;;12.43;6.78;;;;;;;4.64;58.70;100690.19;5055251;28;20040;-84
2021/12/03 00:03:37;;;;;;;14.38;7.82;;;;;;;4.45;59.83;100687.56;5044821;28;20056;-85
2021/12/03 00:06:03;;;;;;;15.93;7.80;;;;;;;4.41;58.96;100683.25;5052606;28;20064;-85
2021/12/03 00:08:29;;;;;;;18.77;8.10;;;;;;;3.96;60.74;100697.63;5039104;28;20029;-85
2021/12/03 00:10:57;;;;;;;15.15;7.75;;;;;;;4.57;58.83;100697.88;5041000;28;20079;-85
2021/12/03 00:13:24;;;;;;;18.15;8.57;;;;;;;4.61;58.54;100692.75;5042171;28;20043;-85
2021/12/03 00:15:51;;;;;;;16.10;8.52;;;;;;;4.85;58.00;100702.22;5042596;28;20064;-85
2021/12/03 00:18:17;;;;;;;20.35;8.27;;;;;;;4.35;58.77;100707.22;5040208;28;20041;-85
2021/12/03 00:20:43;;;;;;;17.13;7.93;;;;;;;4.15;59.57;100708.88;5039594;28;20083;-85
2021/12/03 00:23:08;;;;;;;17.98;8.63;;;;;;;4.59;58.14;100694.44;5039379;28;20033;-85
2021/12/03 00:25:35;;;;;;;16.83;8.07;;;;;;;4.46;58.58;100690.16;5034399;28;20532;-85
2021/12/03 00:28:01;;;;;;;17.10;7.95;;;;;;;4.23;58.19;100694.34;5020486;28;20567;-85
2021/12/03 00:30:27;;;;;;;15.10;8.20;;;;;;;4.76;56.82;100684.19;5037531;28;20123;-85
2021/12/03 00:32:53;;;;;;;15.25;7.30;;;;;;;4.83;56.55;100689.34;5041181;28;20550;-85
2021/12/03 00:35:20;;;;;;;14.10;7.13;;;;;;;4.26;58.75;100690.06;5044196;28;20062;-85
2021/12/03 00:37:47;;;;;;;14.23;7.28;;;;;;;4.45;57.63;100691.00;5041765;28;20039;-85
2021/12/03 00:40:17;;;;;;;16.23;7.03;;;;;;;4.13;57.85;100703.75;5050566;28;20132;-85
2021/12/03 00:42:42;;;;;;;15.32;7.50;;;;;;;4.20;57.83;100697.75;5042219;28;20037;-85
2021/12/03 00:45:10;;;;;;;16.20;7.72;;;;;;;4.28;56.96;100695.22;5036077;28;20564;-85
2021/12/03 00:47:36;;;;;;;14.07;7.07;;;;;;;4.56;56.50;100699.59;5047145;28;20393;-85
2021/12/03 00:50:03;;;;;;;14.80;6.75;;;;;;;4.62;55.95;100689.31;5047527;28;20112;-85
2021/12/03 00:52:28;;;;;;;13.55;7.07;;;;;;;4.60;56.13;100690.16;5059019;28;20112;-84
2021/12/03 00:54:54;;;;;;;12.32;6.15;;;;;;;4.49;56.15;100694.44;5042313;28;20480;-85
2021/12/03 00:57:19;;;;;;;13.27;6.78;;;;;;;4.48;56.82;100691.00;5043666;28;20041;-85
2021/12/03 00:59:45;;;;;;;12.65;6.82;;;;;;;4.52;56.99;100700.44;5039399;28;20029;-85
2021/12/03 01:02:11;;;;;;;11.45;6.65;;;;;;;4.33;57.78;100706.38;5040753;28;20640;-85
2021/12/03 01:04:36;;;;;;;18.33;7.05;;;;;;;4.42;57.29;100716.69;5036738;28;20064;-85
2021/12/03 01:07:02;;;;;;;15.32;7.68;;;;;;;4.36;59.24;100721.81;5042583;28;20410;-85
2021/12/03 01:09:27;;;;;;;13.10;6.97;;;;;;;4.62;58.21;100717.59;5040210;28;20041;-85
2021/12/03 01:11:53;;;;;;;14.60;7.25;;;;;;;4.62;59.53;100721.88;5047270;28;20035;-85
2021/12/03 01:14:19;;;;;;;13.73;7.60;;;;;;;4.41;59.51;100722.69;5039698;28;20087;-85
2021/12/03 01:16:45;;;;;;;14.95;8.00;;;;;;;4.73;59.82;100725.38;5046520;28;20052;-85
2021/12/03 01:19:12;;;;;;;15.98;7.80;;;;;;;4.68;59.10;100721.91;5034756;28;20068;-85
2021/12/03 01:21:38;;;;;;;15.05;7.07;;;;;;;4.83;59.24;100727.06;5038250;28;20083;-85
2021/12/03 01:24:05;;;;;;;16.02;7.55;;;;;;;4.80;58.79;100725.38;5042202;28;20076;-85
2021/12/03 01:26:32;;;;;;;14.70;7.32;;;;;;;5.10;58.08;100727.13;5040281;28;20017;-85
2021/12/03 01:28:58;;;;;;;12.93;6.53;;;;;;;4.84;60.17;100739.09;5043496;28;20043;-85
2021/12/03 01:31:23;;;;;;;13.63;6.35;;;;;;;4.70;59.69;100738.22;5038023;28;20037;-85
2021/12/03 01:33:49;;;;;;;13.30;7.03;;;;;;;5.14;58.11;100748.59;5043741;28;20576;-85
2021/12/03 01:36:15;;;;;;;12.73;7.13;;;;;;;5.21;58.07;100746.00;5039584;28;20056;-85
2021/12/03 01:38:41;;;;;;;14.73;7.25;;;;;;;5.26;58.16;100748.59;5041722;28;20095;-85
2021/12/03 01:41:07;;;;;;;12.13;7.18;;;;;;;5.14;58.00;100751.16;5043558;28;20033;-85
2021/12/03 01:43:33;;;;;;;17.40;7.95;;;;;;;4.83;58.43;100751.09;5023310;28;20033;-85
2021/12/03 01:46:07;;;;;;;12.80;7.15;;;;;;;4.88;58.69;100744.25;5041167;28;20041;-85
2021/12/03 01:48:33;;;;;;;11.70;5.93;;;;;;;5.32;57.71;100739.16;5038359;28;20049;-85
2021/12/03 01:50:59;;;;;;;13.32;7.35;;;;;;;5.31;57.77;100741.72;5042496;28;20056;-85
2021/12/03 01:53:28;;;;;;;13.57;6.10;;;;;;;5.24;58.03;100748.56;5029585;28;20048;-85
2021/12/03 01:55:57;;;;;;;12.75;7.03;;;;;;;5.28;56.97;100733.97;5039724;28;20065;-85
2021/12/03 01:58:23;;;;;;;13.52;6.78;;;;;;;5.30;57.47;100734.84;5044823;28;20045;-85
2021/12/03 02:00:53;;;;;;;14.48;6.70;;;;;;;5.19;57.35;100740.00;5038132;28;20046;-85
2021/12/03 02:03:21;;;;;;;15.73;6.90;;;;;;;5.33;57.43;100739.97;5041735;28;20498;-85
2021/12/03 02:05:46;;;;;;;14.52;6.72;;;;;;;5.33;57.71;100737.41;5041810;28;20513;-85
2021/12/03 02:08:13;;;;;;;9.98;6.25;;;;;;;5.17;57.09;100736.56;5040525;28;20029;-85
2021/12/03 02:10:39;;;;;;;10.32;5.88;;;;;;;4.97;57.29;100740.81;5039396;28;20120;-85
2021/12/03 02:13:05;;;;;;;12.02;6.55;;;;;;;4.91;58.23;100754.53;5040231;28;20098;-85
2021/12/03 02:15:30;;;;;;;11.27;6.15;;;;;;;5.18;57.10;100751.16;5044754;28;20036;-85
2021/12/03 02:17:56;;;;;;;13.57;6.28;;;;;;;4.83;58.10;100751.09;5039039;28;20494;-85
2021/12/03 02:20:22;;;;;;;13.15;7.00;;;;;;;5.02;57.53;100749.44;5037413;28;20033;-85
2021/12/03 02:22:48;;;;;;;12.43;6.53;;;;;;;5.01;58.11;100750.28;5052071;28;20029;-85
2021/12/03 02:25:22;;;;;;;10.32;5.75;;;;;;;5.05;58.04;100741.72;5044852;28;20577;-85
2021/12/03 02:27:49;;;;;;;12.63;6.73;;;;;;;5.02;57.89;100743.41;5040433;28;20405;-85
2021/12/03 02:30:15;;;;;;;10.57;5.53;;;;;;;5.17;57.09;100746.00;5038536;28;20274;-85
2021/12/03 02:32:41;;;;;;;15.82;6.35;;;;;;;5.07;56.93;100742.56;5037907;28;20748;-85
2021/12/03 02:35:08;;;;;;;10.52;5.97;;;;;;;5.21;57.21;100746.00;5039185;28;20013;-85
2021/12/03 02:37:34;;;;;;;17.42;7.30;;;;;;;5.13;57.46;100752.00;5028013;28;20028;-85
2021/12/03 02:40:00;;;;;;;11.63;5.70;;;;;;;5.16;57.52;100754.56;5041507;28;20507;-85
2021/12/03 02:42:25;;;;;;;10.65;5.32;;;;;;;5.18;57.59;100755.44;5039559;28;20080;-85
2021/12/03 02:44:51;;;;;;;9.20;5.53;;;;;;;5.26;56.91;100752.03;5053372;28;20035;-85
2021/12/03 02:47:17;;;;;;;10.07;5.55;;;;;;;5.20;57.08;100746.00;5032945;28;20033;-85
2021/12/03 02:49:43;;;;;;;11.73;6.18;;;;;;;5.20;57.53;100752.03;5039537;28;20115;-85
2021/12/03 02:52:10;;;;;;;11.55;5.47;;;;;;;5.31;56.84;100745.16;5036211;28;20502;-85
2021/12/03 02:54:36;;;;;;;10.30;5.93;;;;;;;5.15;57.30;100740.84;5042999;28;20025;-85
2021/12/03 02:57:03;;;;;;;8.88;5.13;;;;;;;5.04;57.64;100744.25;5041177;28;20037;-85
2021/12/03 02:59:32;;;;;;;9.45;5.40;;;;;;;5.22;57.45;100737.44;5049484;28;20123;-85
2021/12/03 03:01:58;;;;;;;10.88;5.57;;;;;;;4.93;57.99;100741.69;5040985;28;20418;-85
2021/12/03 03:04:23;;;;;;;9.32;4.97;;;;;;;5.16;56.53;100742.56;5047318;28;20030;-85
2021/12/03 03:06:49;;;;;;;10.80;4.60;;;;;;;5.21;56.94;100733.13;5040915;28;20080;-85
2021/12/03 03:09:15;;;;;;;9.43;5.43;;;;;;;4.86;56.96;100743.38;5041868;28;20110;-85
2021/12/03 03:11:40;;;;;;;13.00;4.88;;;;;;;4.86;58.20;100742.53;5039832;28;20037;-85
2021/12/03 03:14:06;;;;;;;11.15;5.65;;;;;;;4.89;58.50;100745.09;5040869;28;20580;-85
2021/12/03 03:16:33;;;;;;;10.43;5.43;;;;;;;5.02;58.67;100746.00;5054184;28;20033;-85
2021/12/03 03:18:58;;;;;;;9.52;4.93;;;;;;;4.93;58.54;100749.41;5045351;28;20044;-85
2021/12/03 03:21:25;;;;;;;9.55;5.50;;;;;;;5.10;58.22;100754.56;5027368;28;20045;-85
2021/12/03 03:23:51;;;;;;;8.45;5.65;;;;;;;4.97;58.58;100753.69;5060135;28;20057;-85
2021/12/03 03:26:17;;;;;;;9.05;5.13;;;;;;;5.02;58.62;100757.16;5046076;28;20501;-85
2021/12/03 03:28:44;;;;;;;9.95;5.30;;;;;;;4.91;59.13;100759.69;5037890;28;20049;-85
2021/12/03 03:31:10;;;;;;;8.50;4.35;;;;;;;5.13;58.45;100762.31;5038015;28;20564;-85
2021/12/03 03:33:38;;;;;;;8.20;4.72;;;;;;;5.18;58.47;100756.28;5041551;28;20067;-85
2021/12/03 03:36:04;;;;;;;10.15;5.15;;;;;;;5.33;56.55;100739.97;5045081;28;20493;-85
2021/12/03 03:38:30;;;;;;;9.10;4.38;;;;;;;5.29;56.18;100736.56;5030807;28;20041;-85
2021/12/03 03:40:56;;;;;;;10.93;4.47;;;;;;;5.23;55.90;100738.28;5042203;28;20412;-85
2021/12/03 03:43:22;;;;;;;9.52;4.90;;;;;;;5.09;56.84;100740.84;5047699;28;20059;-85
2021/12/03 03:45:48;;;;;;;8.30;4.18;;;;;;;5.01;57.67;100747.69;5040275;28;20034;-85
2021/12/03 03:48:13;;;;;;;7.45;4.30;;;;;;;5.05;57.23;100749.44;5028492;28;20029;-85
2021/12/03 03:50:40;;;;;;;13.25;4.70;;;;;;;5.08;57.38;100751.16;5044157;28;20045;-85
2021/12/03 03:53:05;;;;;;;8.85;4.90;;;;;;;5.02;57.49;100748.56;5049764;28;20518;-85
2021/12/03 03:55:32;;;;;;;11.23;4.43;;;;;;;4.87;58.07;100755.41;5039939;28;20044;-85
2021/12/03 03:58:01;;;;;;;8.63;4.20;;;;;;;5.08;56.79;100756.28;5039042;28;20033;-85
2021/12/03 04:00:31;;;;;;;8.15;3.97;;;;;;;5.18;56.47;100746.00;5041463;28;20036;-85
2021/12/03 04:02:57;;;;;;;8.82;4.00;;;;;;;4.95;57.61;100754.56;5049007;28;20037;-85
2021/12/03 04:05:23;;;;;;;10.93;4.20;;;;;;;5.15;57.45;100746.00;5039530;28;20039;-85
2021/12/03 04:07:48;;;;;;;10.80;4.45;;;;;;;5.41;56.00;100735.72;5045736;28;20145;-85
2021/12/03 04:10:14;;;;;;;8.35;4.28;;;;;;;5.33;56.63;100737.41;5044639;28;20033;-85
2021/12/03 04:12:40;;;;;;;8.48;3.63;;;;;;;5.21;56.88;100746.00;5021821;28;20032;-85
2021/12/03 04:15:08;;;;;;;7.93;4.15;;;;;;;5.04;57.21;100746.84;5042208;28;20041;-85
2021/12/03 04:17:34;;;;;;;6.82;4.32;;;;;;;5.16;57.33;100736.56;5054754;28;20032;-85
2021/12/03 04:19:59;;;;;;;7.97;3.95;;;;;;;5.22;56.81;100728.84;5044063;28;20044;-85
2021/12/03 04:22:26;;;;;;;10.02;4.20;;;;;;;5.04;55.98;100718.53;5046381;28;20053;-85
2021/12/03 04:24:54;;;;;;;7.05;3.80;;;;;;;5.28;56.68;100714.25;5062979;28;20041;-85
2021/12/03 04:27:20;;;;;;;6.85;3.90;;;;;;;5.25;56.33;100713.38;5045185;28;20090;-85
2021/12/03 04:29:46;;;;;;;12.88;4.00;;;;;;;5.17;56.07;100713.41;5039977;28;20025;-85
2021/12/03 04:32:12;;;;;;;8.30;3.63;;;;;;;5.15;57.82;100716.84;5040509;28;20029;-85
2021/12/03 04:34:39;;;;;;;9.57;3.78;;;;;;;5.02;57.27;100713.38;5048947;28;20127;-85
2021/12/03 04:37:05;;;;;;;7.40;3.03;;;;;;;5.05;57.15;100710.81;5040018;28;20029;-85
2021/12/03 04:39:31;;;;;;;8.70;3.88;;;;;;;4.94;57.14;100712.50;5056659;28;20051;-85
2021/12/03 04:41:56;;;;;;;7.80;4.15;;;;;;;4.99;57.49;100708.25;5038673;28;20108;-85
2021/12/03 04:44:22;;;;;;;10.57;3.58;;;;;;;5.22;57.16;100697.94;5029763;28;20045;-85
2021/12/03 04:46:47;;;;;;;7.22;3.40;;;;;;;5.04;57.15;100708.22;5025485;28;20048;-85
2021/12/03 04:49:13;;;;;;;9.68;4.10;;;;;;;5.09;58.02;100711.69;5029154;28;20029;-85
2021/12/03 04:51:38;;;;;;;5.57;4.15;;;;;;;5.03;59.16;100709.94;5040921;28;20055;-85
2021/12/03 04:54:04;;;;;;;8.13;3.55;;;;;;;4.89;58.36;100715.09;5043943;28;20113;-85
2021/12/03 04:56:29;;;;;;;7.20;3.78;;;;;;;5.14;57.36;100705.66;5045752;28;20059;-85
2021/12/03 04:58:55;;;;;;;5.63;3.22;;;;;;;5.12;57.74;100693.66;5029174;28;20044;-85
2021/12/03 05:01:21;;;;;;;5.78;3.30;;;;;;;5.26;57.56;100694.50;5047574;28;20049;-85
2021/12/03 05:03:46;;;;;;;8.30;3.30;;;;;;;5.17;57.35;100692.81;5038027;28;20029;-85
2021/12/03 05:06:16;;;;;;;5.15;3.17;;;;;;;5.17;56.68;100689.34;5030261;28;20040;-85
2021/12/03 05:08:42;;;;;;;7.60;3.25;;;;;;;5.35;56.14;100685.06;5040138;28;20037;-85
2021/12/03 05:11:08;;;;;;;8.13;3.65;;;;;;;5.26;56.88;100694.50;5035885;28;20096;-85
2021/12/03 05:13:36;;;;;;;6.15;3.33;;;;;;;5.11;57.75;100692.81;5042730;28;20128;-85
2021/12/03 05:16:03;;;;;;;6.30;3.13;;;;;;;5.17;57.54;100672.19;5034918;28;20047;-85
2021/12/03 05:18:30;;;;;;;7.85;3.58;;;;;;;5.15;57.28;100680.78;5021971;28;20490;-85
2021/12/03 05:21:01;;;;;;;7.55;4.00;;;;;;;5.17;58.02;100689.34;5045578;28;20032;-85
2021/12/03 05:23:28;;;;;;;7.82;3.60;;;;;;;5.16;58.50;100692.78;5037706;28;20021;-85
2021/12/03 05:25:54;;;;;;;6.47;3.33;;;;;;;5.24;58.50;100697.06;5043075;28;20033;-85
2021/12/03 05:28:20;;;;;;;6.85;3.40;;;;;;;5.08;58.94;100697.09;5042036;28;20033;-85
2021/12/03 05:30:46;;;;;;;6.97;2.95;;;;;;;5.26;58.49;100705.66;5041083;28;20048;-85
2021/12/03 05:33:13;;;;;;;8.07;3.50;;;;;;;5.15;58.07;100706.53;5045512;28;20740;-85
2021/12/03 05:35:38;;;;;;;4.68;2.97;;;;;;;4.97;59.57;100721.97;5038135;28;20033;-85
2021/12/03 05:38:04;;;;;;;5.25;2.58;;;;;;;5.19;58.95;100715.97;5034269;28;20083;-85
2021/12/03 05:40:31;;;;;;;4.57;2.70;;;;;;;5.28;57.72;100726.25;5041819;28;20037;-85
2021/12/03 05:42:57;;;;;;;5.22;2.83;;;;;;;5.29;58.12;100717.69;5046165;28;20056;-85
2021/12/03 05:45:27;;;;;;;3.97;2.33;;;;;;;5.35;58.20;100718.56;5036342;28;20037;-85
2021/12/03 05:47:53;;;;;;;5.93;2.78;;;;;;;5.16;59.17;100721.09;5036250;28;20057;-85
2021/12/03 05:50:20;;;;;;;4.90;3.15;;;;;;;5.29;58.62;100721.13;5037876;28;20461;-85
2021/12/03 05:52:47;;;;;;;6.00;2.60;;;;;;;5.12;58.03;100727.13;5053513;28;20064;-85
2021/12/03 05:55:13;;;;;;;4.90;2.85;;;;;;;4.90;59.21;100731.41;5051620;28;20124;-85
2021/12/03 05:57:40;;;;;;;7.72;2.97;;;;;;;5.23;57.71;100721.13;5033475;28;20040;-85
2021/12/03 06:00:12;;;;;;;5.88;2.50;;;;;;;5.26;58.70;100718.56;5038504;28;20063;-85
2021/12/03 06:02:38;;;;;;;8.35;3.25;;;;;;;4.96;58.34;100718.53;5037798;28;20078;-85
2021/12/03 06:05:05;;;;;;;6.20;2.80;;;;;;;5.21;58.07;100717.66;5043056;28;20155;-85
2021/12/03 06:07:30;;;;;;;7.65;2.88;;;;;;;5.34;57.86;100718.53;5044493;28;20029;-85
2021/12/03 06:09:56;;;;;;;4.80;2.88;;;;;;;5.32;58.94;100722.84;5027218;28;20052;-85
2021/12/03 06:12:21;;;;;;;3.35;2.40;;;;;;;5.58;58.09;100727.94;5022353;28;20049;-85
2021/12/03 06:14:47;;;;;;;4.63;2.58;;;;;;;5.22;58.69;100734.84;5020901;28;20037;-85
2021/12/03 06:17:13;;;;;;;5.88;2.38;;;;;;;5.19;58.50;100726.25;5023193;28;20739;-85
2021/12/03 06:19:42;;;;;;;5.07;2.80;;;;;;;5.31;58.23;100726.25;5028999;28;20033;-85
2021/12/03 06:22:09;;;;;;;6.38;2.60;;;;;;;5.26;58.24;100728.00;5021898;28;20029;-85
2021/12/03 06:24:35;;;;;;;5.00;2.60;;;;;;;5.27;59.48;100738.28;5041757;28;20035;-85
2021/12/03 06:27:01;;;;;;;4.70;2.22;;;;;;;5.39;58.75;100724.53;5044173;28;20166;-85
2021/12/03 06:29:26;;;;;;;5.97;2.20;;;;;;;5.53;58.81;100722.81;5044433;28;20120;-85
2021/12/03 06:31:52;;;;;;;5.32;3.08;;;;;;;5.29;59.53;100725.41;5004352;28;20756;-85
2021/12/03 06:34:18;;;;;;;5.70;3.55;;;;;;;5.34;61.21;100733.97;5037876;28;20482;-85
2021/12/03 06:36:43;;;;;;;8.00;2.78;;;;;;;5.32;59.61;100734.00;5043350;28;20124;-85
2021/12/03 06:39:09;;;;;;;5.18;3.08;;;;;;;5.41;60.28;100728.84;5042538;28;20045;-85
2021/12/03 06:41:37;;;;;;;3.22;2.25;;;;;;;5.67;60.08;100728.81;5006477;28;20029;-85
2021/12/03 06:44:05;;;;;;;5.50;2.70;;;;;;;5.62;59.23;100727.97;5037139;28;20041;-85
2021/12/03 06:46:35;;;;;;;6.18;3.00;;;;;;;5.59;59.67;100722.81;5035771;28;20036;-85
2021/12/03 06:49:01;;;;;;;7.53;3.00;;;;;;;5.59;60.03;100733.13;5054731;28;20041;-85
2021/12/03 06:51:28;;;;;;;9.00;3.65;;;;;;;5.54;59.96;100731.38;5038372;28;20034;-85
2021/12/03 06:56:32;;;;;;;5.18;2.63;;;;;;;5.51;60.37;100728.81;5031396;28;20048;-86
2021/12/03 06:58:58;;;;;;;4.45;2.60;;;;;;;5.34;60.97;100739.13;5039949;28;20109;-85
2021/12/03 07:01:23;;;;;;;7.80;3.20;;;;;;;5.55;60.06;100739.13;5051526;28;20053;-85
2021/12/03 07:03:49;;;;;;;6.63;3.30;;;;;;;5.31;60.65;100742.56;5039257;28;20738;-85
2021/12/03 07:06:14;;;;;;;6.13;2.88;;;;;;;5.39;60.40;100743.41;5022499;28;20042;-85
2021/12/03 07:08:40;;;;;;;6.43;2.80;;;;;;;5.61;60.61;100746.00;5024788;28;20117;-86
2021/12/03 07:11:06;;;;;;;6.30;2.75;;;;;;;5.60;60.35;100741.69;5041269;28;20124;-85
2021/12/03 07:13:31;;;;;;;8.18;2.88;;;;;;;5.64;60.48;100739.13;5039869;28;20491;-86
2021/12/03 07:15:58;;;;;;;7.30;2.47;;;;;;;5.52;60.54;100748.56;5037784;28;20029;-85
2021/12/03 07:18:24;;;;;;;6.03;2.47;;;;;;;5.54;60.08;100739.97;5035118;28;20086;-85
2021/12/03 07:20:50;;;;;;;5.38;2.70;;;;;;;5.62;60.31;100738.28;5039736;28;20030;-85
2021/12/03 07:23:15;;;;;;;4.85;2.28;;;;;;;5.50;60.56;100735.72;5037139;28;20026;-85
2021/12/03 07:25:41;;;;;;;5.50;2.08;;;;;;;5.44;60.38;100746.84;5036539;28;20043;-85
2021/12/03 07:28:07;;;;;;;5.72;2.45;;;;;;;5.54;59.81;100745.13;5042399;28;20850;-85
2021/12/03 07:30:33;;;;;;;4.03;2.45;;;;;;;5.64;59.70;100738.25;5041571;28;20028;-84
2021/12/03 07:32:58;;;;;;;3.25;2.05;;;;;;;5.52;60.25;100739.13;5043744;28;20049;-85
2021/12/03 07:35:24;;;;;;;8.50;1.90;;;;;;;5.26;61.32;100733.13;5044398;28;20025;-84
2021/12/03 07:37:50;;;;;;;7.07;2.42;;;;;;;5.27;61.09;100730.53;5019017;28;20495;-85
2021/12/03 07:40:15;;;;;;;8.50;2.40;;;;;;;5.17;60.50;100744.28;5036267;28;20039;-88
2021/12/03 07:42:42;;;;;;;7.75;2.25;;;;;;;5.32;60.41;100743.44;5044698;28;20440;-88
2021/12/03 07:45:09;;;;;;;5.90;2.47;;;;;;;5.29;60.29;100740.88;5032698;28;20084;-88
2021/12/03 07:47:35;;;;;;;6.53;2.45;;;;;;;5.28;59.81;100744.28;5031565;28;20036;-88
2021/12/03 07:50:01;;;;;;;5.75;2.40;;;;;;;5.57;58.79;100739.97;5035702;28;20295;-88
2021/12/03 07:52:26;;;;;;;3.75;1.70;;;;;;;5.38;60.22;100746.00;5024476;28;20064;-88
2021/12/03 07:54:52;;;;;;;5.63;2.10;;;;;;;5.46;59.84;100749.44;5039343;28;20044;-88
2021/12/03 07:57:18;;;;;;;7.13;2.92;;;;;;;5.54;60.65;100750.28;5061428;28;20049;-88
2021/12/03 07:59:44;;;;;;;11.20;2.85;;;;;;;5.36;59.60;100743.41;5046894;28;20029;-88
2021/12/03 08:02:10;;;;;;;5.75;2.65;;;;;;;5.63;59.68;100746.84;5038737;28;20037;-88
2021/12/03 08:04:36;;;;;;;5.82;2.15;;;;;;;5.52;59.01;100749.44;5049919;28;20039;-88
2021/12/03 08:07:01;;;;;;;5.00;2.15;;;;;;;5.51;59.91;100745.13;5027923;28;20360;-88
2021/12/03 08:09:27;;;;;;;7.20;2.53;;;;;;;5.47;59.92;100743.44;5042001;28;20056;-88
2021/12/03 08:11:53;;;;;;;6.63;2.50;;;;;;;5.52;59.24;100746.84;5057385;28;20017;-88
2021/12/03 08:14:19;;;;;;;7.40;2.47;;;;;;;5.37;59.21;100759.75;5026448;28;20048;-88
2021/12/03 08:16:44;;;;;;;6.78;2.47;;;;;;;5.48;59.72;100746.00;5038749;28;20497;-88
2021/12/03 08:19:10;;;;;;;5.30;2.50;;;;;;;5.57;58.86;100742.56;5042603;28;20048;-88
2021/12/03 08:21:35;;;;;;;5.97;2.50;;;;;;;5.34;59.86;100741.72;5038419;28;20117;-87
2021/12/03 08:24:01;;;;;;;5.43;3.10;;;;;;;5.34;59.76;100744.28;5030881;28;20047;-88
2021/12/03 08:26:28;;;;;;;7.68;2.10;;;;;;;5.48;60.00;100750.28;5039400;28;21837;-88
2021/12/03 08:28:54;;;;;;;4.93;2.10;;;;;;;5.41;59.27;100749.47;5043626;28;20379;-88
2021/12/03 08:31:21;;;;;;;8.63;2.88;;;;;;;5.42;60.22;100752.88;5042039;28;20044;-87
2021/12/03 08:33:47;;;;;;;8.27;2.88;;;;;;;5.51;59.40;100750.28;5027407;28;20442;-88
2021/12/03 08:36:13;;;;;;;7.40;2.50;;;;;;;5.59;59.33;100752.88;5043250;28;20044;-87
2021/12/03 08:38:40;;;;;;;5.07;2.20;;;;;;;5.56;59.70;100756.31;5043893;28;20518;-87
2021/12/03 08:41:06;;;;;;;5.60;1.80;;;;;;;5.48;59.24;100756.31;5040817;28;20045;-89
2021/12/03 08:43:31;;;;;;;4.70;1.83;;;;;;;5.27;59.15;100760.59;5044837;28;20114;-89
2021/12/03 08:45:57;;;;;;;7.18;1.90;;;;;;;5.35;58.63;100758.91;5051937;28;20033;-87
2021/12/03 08:48:24;;;;;;;11.27;1.90;;;;;;;5.56;58.22;100753.75;5040905;28;20120;-87
2021/12/03 08:51:22;;;;;;;3.33;1.73;;;;;;;5.47;58.78;100748.59;5044664;28;20045;-86
2021/12/03 08:56:24;;;;;;;4.05;2.10;;;;;;;5.20;58.95;100758.88;5040437;28;20036;-87
2021/12/03 08:58:50;;;;;;;4.13;1.80;;;;;;;5.44;59.05;100752.00;5042082;28;20036;-87
2021/12/03 09:01:15;;;;;;;7.82;1.80;;;;;;;5.34;57.73;100736.56;5039868;28;20040;-87
2021/12/03 09:03:41;;;;;;;3.90;1.60;;;;;;;5.54;56.59;100733.97;5039367;28;20040;-87
2021/12/03 09:06:07;;;;;;;5.38;1.60;;;;;;;5.50;57.81;100743.44;5032347;28;20033;-87
2021/12/03 09:08:32;;;;;;;8.77;1.70;;;;;;;5.62;57.00;100738.28;5039154;28;20506;-86
2021/12/03 09:10:58;;;;;;;5.00;1.83;;;;;;;5.70;57.32;100738.25;5045152;28;20035;-87
2021/12/03 09:13:24;;;;;;;7.57;2.08;;;;;;;5.56;57.04;100745.16;5039317;28;20091;-87
2021/12/03 09:15:57;;;;;;;3.75;1.55;;;;;;;5.50;57.98;100742.56;5042443;28;20321;-87
2021/12/03 09:18:45;;;;;;;4.28;1.65;;;;;;;5.39;58.14;100743.41;5043853;28;20049;-87
2021/12/03 09:21:19;;;;;;;5.47;1.73;;;;;;;5.72;56.58;100741.66;5033589;28;20056;-87
2021/12/03 09:26:24;;;;;;;6.43;1.35;;;;;;;5.51;55.56;100732.25;5043687;28;20755;-86
2021/12/03 09:28:58;;;;;;;19.50;2.67;;;;;;;6.00;55.29;100727.88;5026875;28;20119;-86
2021/12/03 09:31:23;;;;;;;5.65;1.70;;;;;;;5.82;55.35;100730.50;5042194;28;20103;-86
2021/12/03 09:33:50;;;;;;;5.07;2.05;;;;;;;5.44;55.62;100731.38;5035407;28;20032;-86
2021/12/03 09:36:15;;;;;;;4.72;2.08;;;;;;;5.61;55.72;100733.09;5041716;28;20037;-86
2021/12/03 09:38:41;;;;;;;9.63;2.00;;;;;;;5.84;55.51;100734.78;5045109;28;20039;-86
2021/12/03 09:41:17;;;;;;;7.90;2.55;;;;;;;5.93;56.74;100728.75;5045890;28;20057;-86
2021/12/03 09:43:46;;;;;;;5.95;1.83;;;;;;;5.49;55.60;100721.09;5045054;28;20119;-86
2021/12/03 09:51:08;;;;;;;4.68;1.50;;;;;;;5.45;55.71;100725.38;5040219;28;20119;-86
2021/12/03 09:56:10;;;;;;;5.75;1.98;;;;;;;5.52;54.35;100712.50;5038132;28;20075;-86
2021/12/03 09:59:14;;;;;;;6.05;1.88;;;;;;;5.88;53.77;100705.56;5015534;28;20033;-85
2021/12/03 10:01:34;;;;;;;2.17;1.52;;;;;;;5.52;53.62;100702.19;5036717;28;20044;-86
2021/12/03 10:12:33;;;;;;;4.55;1.67;;;;;;;5.43;54.59;100700.50;5042320;28;20082;-85
2021/12/03 10:15:12;;;;;;;4.18;1.45;;;;;;;6.25;54.19;100683.06;5033606;28;20116;-85
2021/12/03 10:17:50;;;;;;;3.45;1.52;;;;;;;6.48;53.68;100698.47;5042952;28;20447;-85
2021/12/03 10:39:21;;;;;;;4.13;1.70;;;;;;;6.26;53.48;100669.31;5039017;28;20049;-87
2021/12/03 10:45:16;;;;;;;2.72;1.38;;;;;;;6.67;51.07;100661.34;5009845;28;20505;-86
2021/12/03 10:50:28;;;;;;;3.80;1.50;;;;;;;6.61;53.10;100663.09;5039229;28;20044;-86
2021/12/03 14:41:31;;;;;;;5.40;1.75;;;;;;;6.28;52.54;100349.44;5040644;28;20045;-87
2021/12/03 14:44:10;;;;;;;3.15;1.42;;;;;;;6.37;53.55;100351.91;5036991;28;20037;-87
2021/12/03 14:54:37;;;;;;;4.82;2.03;;;;;;;6.52;52.48;100351.78;5040131;28;20029;-87
2021/12/03 14:57:22;;;;;;;5.40;2.28;;;;;;;6.55;52.55;100351.75;5036482;28;20037;-88
2021/12/03 15:00:35;;;;;;;3.58;1.83;;;;;;;6.48;52.22;100342.38;5035181;28;20079;-88
2021/12/03 15:03:02;;;;;;;3.22;1.55;;;;;;;6.45;53.98;100332.06;5039266;28;20552;-87
2021/12/03 15:08:48;;;;;;;3.58;1.98;;;;;;;6.35;52.26;100322.72;5042935;28;20063;-88
2021/12/03 15:22:08;;;;;;;4.82;1.80;;;;;;;6.49;51.48;100310.53;5047725;28;20068;-89
2021/12/03 15:32:09;;;;;;;3.22;1.20;;;;;;;6.44;52.69;100317.44;5061627;28;20040;-88
2021/12/03 16:04:28;;;;;;;19.55;7.43;;;;;;;6.51;57.31;100324.28;5047158;28;20094;-89
2021/12/03 16:25:22;;;;;;;6.38;2.20;;;;;;;6.51;58.49;100265.78;5048095;28;20116;-89
2021/12/03 16:44:42;;;;;;;3.17;1.90;;;;;;;6.60;56.45;100236.44;5043867;28;20834;-89
2021/12/03 16:51:55;;;;;;;64.80;18.30;;;;;;;6.33;56.67;100240.19;5037308;28;20133;-89
2021/12/03 16:56:52;;;;;;;5.63;2.40;;;;;;;6.63;55.65;100248.44;5045745;28;20701;-88
2021/12/03 16:59:18;;;;;;;4.05;2.00;;;;;;;6.79;55.41;100242.19;5042920;28;20070;-89
2021/12/03 17:11:59;;;;;;;4.55;1.80;;;;;;;6.77;55.30;100216.41;5041304;28;20494;-88
2021/12/03 17:55:24;;;;;;;4.43;2.33;;;;;;;6.49;58.00;100204.75;5046023;28;20528;-89
2021/12/03 17:57:57;;;;;;;2.10;1.20;;;;;;;6.51;58.81;100187.53;5036135;28;20037;-89
2021/12/03 18:00:33;;;;;;;3.97;1.80;;;;;;;6.43;57.64;100187.59;5033908;28;20056;-88
2021/12/03 18:03:08;;;;;;;5.10;2.22;;;;;;;6.60;58.91;100191.72;5043512;28;20046;-89
2021/12/03 18:56:22;;;;;;;2.95;1.55;;;;;;;6.69;57.14;100091.78;5039293;28;20393;-89
2021/12/03 18:58:56;;;;;;;3.50;1.35;;;;;;;6.79;57.78;100082.16;5037876;28;20053;-89
2021/12/03 19:01:27;;;;;;;1.60;1.03;;;;;;;6.53;57.61;100080.00;5035353;28;20029;-89
2021/12/03 19:04:04;;;;;;;3.85;0.90;;;;;;;6.97;55.79;100072.38;5034665;28;20277;-90
2021/12/03 19:06:41;;;;;;;1.83;1.30;;;;;;;6.85;56.17;100066.56;5042092;28;20040;-90
2021/12/03 19:09:11;;;;;;;2.45;1.45;;;;;;;6.84;56.73;100060.53;5038032;28;20541;-90
2021/12/03 19:11:41;;;;;;;2.38;1.33;;;;;;;6.83;56.91;100069.19;5042350;28;20036;-89
2021/12/03 19:14:07;;;;;;;1.90;1.17;;;;;;;6.80;56.66;100065.78;5040238;28;20024;-90
2021/12/03 19:16:34;;;;;;;5.38;2.70;;;;;;;6.83;56.49;100060.56;5037251;28;20044;-89
2021/12/03 19:19:04;;;;;;;3.30;1.73;;;;;;;6.87;56.61;100060.47;5036253;28;20038;-90
2021/12/03 19:21:39;;;;;;;3.20;1.50;;;;;;;6.44;56.76;100052.56;5040819;28;20397;-90
2021/12/03 19:24:06;;;;;;;3.35;1.60;;;;;;;6.93;56.21;100052.63;5042232;28;20132;-90
2021/12/03 19:26:34;;;;;;;1.95;1.17;;;;;;;6.78;56.87;100054.66;5037015;28;20020;-89
2021/12/03 19:29:02;;;;;;;2.22;1.25;;;;;;;6.56;56.54;100051.56;5043320;28;20029;-90
2021/12/03 19:31:28;;;;;;;1.83;1.00;;;;;;;6.62;55.58;100043.72;5021258;28;20120;-90
2021/12/03 19:33:56;;;;;;;2.22;1.20;;;;;;;6.57;55.80;100046.34;5039316;28;20025;-90